Time;durP1;ratioP1;P1;durP2;ratioP2;P2;SDS_P1;SDS_P2;PMS_P1;PMS_P2;Temp;Humidity;BMP_temperature;BMP_pressure;BME280_temperature;BME280_humidity;BME280_pressure;Samples;Min_cycle;Max_cycle;Signal;HPM_P1;HPM_P2
2024/01/24 00:02:12;;;;;;;;;;;10.50;99.90;;;;;;5013673;28;19921;-74
2024/01/24 00:04:38;;;;;;;;;;;10.50;99.90;;;;;;5015190;28;20397;-75
2024/01/24 00:07:03;;;;;;;;;;;10.50;99.90;;;;;;5014717;28;19925;-75
2024/01/24 00:09:31;;;;;;;;;;;10.70;99.90;;;;;;5014265;28;19976;-75
2024/01/24 00:11:57;;;;;;;;;;;10.50;99.90;;;;;;5014984;28;19933;-74
2024/01/24 00:14:23;;;;;;;;;;;10.50;99.90;;;;;;5015368;28;19926;-75
2024/01/24 00:16:48;;;;;;;;;;;10.60;99.90;;;;;;5019180;28;19932;-75
2024/01/24 00:19:14;;;;;;;;;;;10.60;99.90;;;;;;5020426;28;19932;-75
2024/01/24 00:21:39;;;;;;;;;;;10.60;99.90;;;;;;5034225;28;19925;-74
2024/01/24 00:24:05;;;;;;;;;;;10.70;99.90;;;;;;5033093;28;19932;-75
2024/01/24 00:26:30;;;;;;;;;;;10.60;99.90;;;;;;5034240;28;19925;-75
2024/01/24 00:28:56;;;;;;;;;;;10.60;99.90;;;;;;5034403;28;19929;-75
2024/01/24 00:31:21;;;;;;;;;;;10.70;99.90;;;;;;5032407;28;20047;-74
2024/01/24 00:33:47;;;;;;;;;;;10.60;99.90;;;;;;5034332;28;20343;-75
2024/01/24 00:36:13;;;;;;;;;;;10.60;99.90;;;;;;5034024;28;19932;-75
2024/01/24 00:38:39;;;;;;;;;;;10.60;99.90;;;;;;5033368;28;19925;-75
2024/01/24 00:41:04;;;;;;;;;;;10.60;99.90;;;;;;5033558;28;19925;-74
2024/01/24 00:43:30;;;;;;;;;;;10.60;99.90;;;;;;5033814;28;20327;-75
2024/01/24 00:45:55;;;;;;;;;;;10.60;99.90;;;;;;5020827;28;19930;-74
2024/01/24 00:48:21;;;;;;;;;;;10.70;99.90;;;;;;5013942;28;19926;-74
2024/01/24 00:50:47;;;;;;;;;;;10.90;99.90;;;;;;5013761;28;19972;-74
2024/01/24 00:53:15;;;;;;;;;;;10.70;99.90;;;;;;5012661;28;20008;-74
2024/01/24 00:55:40;;;;;;;;;;;10.70;99.90;;;;;;5014100;28;19973;-74
2024/01/24 00:58:06;;;;;;;;;;;10.70;99.90;;;;;;5012752;28;20273;-75
2024/01/24 01:00:31;;;;;;;;;;;10.80;99.90;;;;;;5013737;28;19925;-75
2024/01/24 01:02:57;;;;;;;;;;;10.90;99.90;;;;;;5013616;28;19925;-74
2024/01/24 01:05:22;;;;;;;;;;;10.80;99.90;;;;;;5012351;28;19925;-74
2024/01/24 01:07:48;;;;;;;;;;;10.90;99.90;;;;;;5013859;28;19925;-74
2024/01/24 01:10:13;;;;;;;;;;;11.00;99.90;;;;;;5013157;28;19932;-74
2024/01/24 01:12:39;;;;;;;;;;;11.20;99.90;;;;;;5012684;28;20012;-74
2024/01/24 01:15:05;;;;;;;;;;;11.00;99.90;;;;;;5013428;28;19971;-75
2024/01/24 01:17:30;;;;;;;;;;;10.90;99.90;;;;;;5013959;28;19945;-74
2024/01/24 01:19:59;;;;;;;;;;;10.90;99.90;;;;;;5012889;28;19929;-74
2024/01/24 01:22:27;;;;;;;;;;;11.00;99.90;;;;;;5013102;28;19932;-75
2024/01/24 01:24:53;;;;;;;;;;;11.10;99.90;;;;;;5021098;28;20016;-75
2024/01/24 01:27:18;;;;;;;;;;;11.10;99.90;;;;;;5029062;28;20060;-75
2024/01/24 01:29:44;;;;;;;;;;;11.20;99.90;;;;;;5032959;28;19925;-75
2024/01/24 01:32:09;;;;;;;;;;;11.20;99.90;;;;;;5032800;28;20019;-74
2024/01/24 01:34:35;;;;;;;;;;;11.10;99.90;;;;;;5032174;28;19925;-75
2024/01/24 01:37:00;;;;;;;;;;;11.10;99.90;;;;;;5032789;28;19933;-75
2024/01/24 01:39:26;;;;;;;;;;;11.10;99.90;;;;;;5025652;28;19933;-75
2024/01/24 01:41:51;;;;;;;;;;;11.00;99.90;;;;;;5012570;28;19929;-75
2024/01/24 01:44:17;;;;;;;;;;;11.00;99.90;;;;;;5013379;28;20440;-75
2024/01/24 01:46:45;;;;;;;;;;;11.00;99.90;;;;;;5023895;28;20297;-74
2024/01/24 01:49:11;;;;;;;;;;;11.00;99.90;;;;;;5011556;28;19926;-75
2024/01/24 01:51:37;;;;;;;;;;;10.90;99.90;;;;;;5013237;28;19933;-75
2024/01/24 01:54:03;;;;;;;;;;;10.90;99.90;;;;;;5012163;28;20377;-75
2024/01/24 01:56:29;;;;;;;;;;;10.90;99.90;;;;;;5012295;28;19930;-75
2024/01/24 01:58:57;;;;;;;;;;;10.90;99.90;;;;;;5012583;28;19934;-75
2024/01/24 02:01:23;;;;;;;;;;;10.90;99.90;;;;;;5011729;28;19926;-75
2024/01/24 02:03:48;;;;;;;;;;;10.80;99.90;;;;;;5012713;28;19926;-75
2024/01/24 02:06:14;;;;;;;;;;;10.90;99.90;;;;;;5012610;28;20412;-75
2024/01/24 02:08:40;;;;;;;;;;;10.90;99.90;;;;;;5012269;28;20301;-75
2024/01/24 02:11:05;;;;;;;;;;;10.80;99.90;;;;;;5012317;28;19929;-75
2024/01/24 02:13:31;;;;;;;;;;;10.90;99.90;;;;;;5011327;28;19930;-75
2024/01/24 02:16:03;;;;;;;;;;;11.20;99.90;;;;;;5011886;28;19932;-75
2024/01/24 02:18:29;;;;;;;;;;;10.80;99.90;;;;;;5013579;28;20285;-75
2024/01/24 02:20:55;;;;;;;;;;;10.70;99.90;;;;;;5012671;28;19948;-75
2024/01/24 02:23:25;;;;;;;;;;;10.70;99.90;;;;;;5011393;28;19932;-75
2024/01/24 02:25:50;;;;;;;;;;;10.70;99.90;;;;;;5020625;28;19925;-75
2024/01/24 02:28:16;;;;;;;;;;;10.70;99.90;;;;;;5029397;28;19925;-75
2024/01/24 02:30:42;;;;;;;;;;;10.60;99.90;;;;;;5031393;28;19926;-75
2024/01/24 02:33:07;;;;;;;;;;;10.60;99.90;;;;;;5031351;28;19932;-75
2024/01/24 02:35:36;;;;;;;;;;;10.90;99.90;;;;;;5031928;28;19925;-75
2024/01/24 02:38:02;;;;;;;;;;;11.00;99.90;;;;;;5030891;28;19992;-75
2024/01/24 02:40:30;;;;;;;;;;;10.40;99.90;;;;;;5031676;28;19929;-75
2024/01/24 02:42:56;;;;;;;;;;;10.60;99.90;;;;;;5021425;28;19932;-75
2024/01/24 02:45:21;;;;;;;;;;;10.40;99.90;;;;;;5011136;28;19925;-75
2024/01/24 02:47:47;;;;;;;;;;;10.40;99.90;;;;;;5012211;28;19925;-75
2024/01/24 02:50:13;;;;;;;;;;;10.30;99.90;;;;;;5011546;28;19932;-75
2024/01/24 02:52:39;;;;;;;;;;;10.30;99.90;;;;;;5011315;28;20012;-75
2024/01/24 02:55:06;;;;;;;;;;;10.40;99.90;;;;;;5011443;28;20419;-75
2024/01/24 02:57:31;;;;;;;;;;;10.30;99.90;;;;;;5011206;28;19929;-75
2024/01/24 02:59:57;;;;;;;;;;;10.30;99.90;;;;;;5012103;28;19975;-74
2024/01/24 03:02:22;;;;;;;;;;;10.20;99.90;;;;;;5011539;28;19926;-75
2024/01/24 03:04:48;;;;;;;;;;;10.30;99.90;;;;;;5010552;28;19933;-75
2024/01/24 03:07:13;;;;;;;;;;;10.20;99.90;;;;;;5010255;28;19925;-75
2024/01/24 03:09:39;;;;;;;;;;;10.60;99.90;;;;;;5011561;28;19932;-75
2024/01/24 03:12:04;;;;;;;;;;;10.30;99.90;;;;;;5012838;28;20297;-75
2024/01/24 03:14:30;;;;;;;;;;;10.20;99.90;;;;;;5011776;28;20386;-75
2024/01/24 03:16:56;;;;;;;;;;;10.40;99.90;;;;;;5012004;28;19929;-75
2024/01/24 03:19:21;;;;;;;;;;;10.40;99.90;;;;;;5010626;28;19925;-75
2024/01/24 03:21:47;;;;;;;;;;;10.30;99.90;;;;;;5011667;28;20456;-75
2024/01/24 03:24:13;;;;;;;;;;;10.30;99.90;;;;;;5011948;28;20027;-75
2024/01/24 03:26:38;;;;;;;;;;;10.50;99.90;;;;;;5014923;28;20016;-75
2024/01/24 03:29:04;;;;;;;;;;;10.20;99.90;;;;;;5015019;28;19952;-75
2024/01/24 03:31:29;;;;;;;;;;;10.70;99.90;;;;;;5020873;28;19925;-75
2024/01/24 03:33:55;;;;;;;;;;;10.20;99.90;;;;;;5030905;28;19972;-75
2024/01/24 03:36:20;;;;;;;;;;;10.20;99.90;;;;;;5035213;28;19925;-75
2024/01/24 03:38:46;;;;;;;;;;;10.20;99.90;;;;;;5035200;28;20389;-75
2024/01/24 03:41:11;;;;;;;;;;;10.50;99.90;;;;;;5033563;28;19973;-75
2024/01/24 03:43:40;;;;;;;;;;;10.40;99.90;;;;;;5034759;28;19971;-75
2024/01/24 03:46:06;;;;;;;;;;;10.40;99.90;;;;;;5036908;28;19979;-75
2024/01/24 03:48:31;;;;;;;;;;;10.30;99.90;;;;;;5014809;28;19925;-75
2024/01/24 03:50:57;;;;;;;;;;;10.50;99.90;;;;;;5015054;28;19972;-75
2024/01/24 03:53:23;;;;;;;;;;;10.30;99.90;;;;;;5014767;28;19925;-75
2024/01/24 03:55:48;;;;;;;;;;;10.40;99.90;;;;;;5014896;28;19925;-75
2024/01/24 03:58:14;;;;;;;;;;;10.30;99.90;;;;;;5014909;28;20369;-75
2024/01/24 04:00:39;;;;;;;;;;;10.20;99.90;;;;;;5017307;28;20007;-75
2024/01/24 04:03:05;;;;;;;;;;;10.40;99.90;;;;;;5033504;28;19925;-75
2024/01/24 04:05:30;;;;;;;;;;;10.40;99.90;;;;;;5034640;28;19925;-75
2024/01/24 04:07:56;;;;;;;;;;;10.20;99.90;;;;;;5033983;28;19979;-75
2024/01/24 04:10:21;;;;;;;;;;;10.00;99.90;;;;;;5033796;28;20389;-75
2024/01/24 04:12:47;;;;;;;;;;;10.00;99.90;;;;;;5034685;28;19932;-75
2024/01/24 04:15:13;;;;;;;;;;;9.90;99.90;;;;;;5033361;28;20012;-75
2024/01/24 04:17:39;;;;;;;;;;;9.80;99.90;;;;;;5034550;28;19982;-75
2024/01/24 04:20:05;;;;;;;;;;;9.90;99.90;;;;;;5033657;28;19925;-75
2024/01/24 04:22:30;;;;;;;;;;;9.80;99.90;;;;;;5033751;28;19979;-75
2024/01/24 04:24:56;;;;;;;;;;;9.80;99.90;;;;;;5034396;28;19971;-75
2024/01/24 04:27:22;;;;;;;;;;;9.80;99.90;;;;;;5034167;28;19990;-75
2024/01/24 04:29:50;;;;;;;;;;;10.20;99.90;;;;;;5033385;28;19925;-75
2024/01/24 04:32:16;;;;;;;;;;;9.80;99.90;;;;;;5034030;28;19929;-75
2024/01/24 04:34:41;;;;;;;;;;;9.70;99.90;;;;;;5034031;28;19925;-75
2024/01/24 04:37:07;;;;;;;;;;;9.70;99.90;;;;;;5032267;28;19936;-75
2024/01/24 04:39:33;;;;;;;;;;;9.80;99.90;;;;;;5015293;28;19929;-75
2024/01/24 04:41:58;;;;;;;;;;;9.50;99.90;;;;;;5014055;28;19925;-75
2024/01/24 04:44:24;;;;;;;;;;;9.50;99.90;;;;;;5013215;28;19948;-75
2024/01/24 04:46:49;;;;;;;;;;;9.80;99.90;;;;;;5031423;28;20285;-84
2024/01/24 04:49:15;;;;;;;;;;;9.50;99.90;;;;;;5033347;28;19925;-73
2024/01/24 04:51:40;;;;;;;;;;;9.50;99.90;;;;;;5032820;28;19929;-73
2024/01/24 04:54:06;;;;;;;;;;;9.80;99.90;;;;;;5033435;28;20038;-73
2024/01/24 04:56:33;;;;;;;;;;;9.50;99.90;;;;;;5033634;28;20018;-74
2024/01/24 04:58:59;;;;;;;;;;;9.50;99.90;;;;;;5018924;28;19931;-73
2024/01/24 05:01:24;;;;;;;;;;;9.50;99.90;;;;;;5013589;28;20308;-73
2024/01/24 05:03:53;;;;;;;;;;;10.20;99.90;;;;;;5023469;28;20258;-74
2024/01/24 05:06:18;;;;;;;;;;;9.60;99.90;;;;;;5019665;28;20009;-75
2024/01/24 05:08:45;;;;;;;;;;;10.00;99.90;;;;;;5027523;28;19926;-75
2024/01/24 05:11:10;;;;;;;;;;;9.60;99.90;;;;;;5024881;28;19929;-74
2024/01/24 05:13:36;;;;;;;;;;;9.60;99.90;;;;;;5023148;28;19935;-76
2024/01/24 05:16:02;;;;;;;;;;;9.60;99.90;;;;;;5032986;28;19925;-75
2024/01/24 05:18:27;;;;;;;;;;;9.50;99.90;;;;;;5032663;28;19926;-75
2024/01/24 05:20:53;;;;;;;;;;;10.20;99.90;;;;;;5033050;28;19933;-82
2024/01/24 05:23:19;;;;;;;;;;;9.40;99.90;;;;;;5031611;28;19933;-73
2024/01/24 05:25:44;;;;;;;;;;;10.10;99.90;;;;;;5032357;28;20296;-73
2024/01/24 05:28:10;;;;;;;;;;;9.80;99.90;;;;;;5032482;28;19971;-72
2024/01/24 05:30:36;;;;;;;;;;;10.00;99.90;;;;;;5033005;28;20473;-71
2024/01/24 05:33:01;;;;;;;;;;;9.20;99.90;;;;;;5037575;28;19925;-71
2024/01/24 05:35:30;;;;;;;;;;;9.10;99.90;;;;;;5052819;28;20015;-71
2024/01/24 05:37:55;;;;;;;;;;;9.20;99.90;;;;;;5052889;28;19929;-71
2024/01/24 05:40:24;;;;;;;;;;;9.10;99.90;;;;;;5051540;28;20272;-71
2024/01/24 05:42:49;;;;;;;;;;;9.20;99.90;;;;;;5027065;28;20491;-76
2024/01/24 05:45:18;;;;;;;;;;;9.10;99.90;;;;;;5030732;28;20019;-73
2024/01/24 05:47:44;;;;;;;;;;;9.50;99.90;;;;;;5014870;28;19929;-75
2024/01/24 05:50:10;;;;;;;;;;;9.10;99.90;;;;;;5011967;28;19926;-77
2024/01/24 05:52:35;;;;;;;;;;;10.00;99.90;;;;;;5012260;28;20012;-77
2024/01/24 05:55:03;;;;;;;;;;;9.20;99.90;;;;;;5012418;28;20206;-74
2024/01/24 05:57:28;;;;;;;;;;;9.10;99.90;;;;;;5031829;28;19975;-76
2024/01/24 05:59:54;;;;;;;;;;;9.10;99.90;;;;;;5032047;28;19951;-75
2024/01/24 06:02:19;;;;;;;;;;;9.30;99.90;;;;;;5019786;28;19995;-75
2024/01/24 06:04:45;;;;;;;;;;;9.50;99.90;;;;;;5012496;28;19929;-74
2024/01/24 06:07:13;;;;;;;;;;;8.90;99.90;;;;;;5011787;28;19926;-75
2024/01/24 06:09:39;;;;;;;;;;;9.00;99.90;;;;;;5011282;28;19925;-73
2024/01/24 06:12:05;;;;;;;;;;;8.90;99.90;;;;;;5013141;28;19979;-73
2024/01/24 06:14:30;;;;;;;;;;;8.80;99.90;;;;;;5012705;28;19936;-73
2024/01/24 06:16:56;;;;;;;;;;;8.80;99.90;;;;;;5012734;28;19976;-74
2024/01/24 06:19:21;;;;;;;;;;;8.90;99.90;;;;;;5012119;28;20024;-74
2024/01/24 06:21:47;;;;;;;;;;;8.80;99.90;;;;;;5011753;28;19925;-74
2024/01/24 06:24:15;;;;;;;;;;;8.70;99.90;;;;;;5009944;28;19925;-74
2024/01/24 06:26:41;;;;;;;;;;;8.70;99.90;;;;;;5010315;28;19932;-74
2024/01/24 06:29:06;;;;;;;;;;;8.60;99.90;;;;;;5010292;28;19929;-74
2024/01/24 06:31:32;;;;;;;;;;;8.90;99.90;;;;;;5010152;28;19976;-74
2024/01/24 06:33:58;;;;;;;;;;;8.70;99.90;;;;;;5010636;28;19932;-74
2024/01/24 06:36:24;;;;;;;;;;;8.70;99.90;;;;;;5009878;28;19925;-73
2024/01/24 06:38:49;;;;;;;;;;;9.40;99.90;;;;;;5011921;28;19926;-74
2024/01/24 06:41:15;;;;;;;;;;;8.90;99.90;;;;;;5011506;28;19925;-74
2024/01/24 06:43:42;;;;;;;;;;;8.70;99.90;;;;;;5011402;28;19925;-74
2024/01/24 06:46:08;;;;;;;;;;;8.70;99.90;;;;;;5012109;28;20008;-74
2024/01/24 06:48:34;;;;;;;;;;;9.60;99.90;;;;;;5013109;28;19933;-74
2024/01/24 06:51:00;;;;;;;;;;;8.70;99.90;;;;;;5010881;28;19926;-74
2024/01/24 06:53:26;;;;;;;;;;;9.40;99.90;;;;;;5011727;28;19996;-73
2024/01/24 06:55:51;;;;;;;;;;;9.10;99.90;;;;;;5012033;28;19925;-74
2024/01/24 06:58:17;;;;;;;;;;;8.60;99.90;;;;;;5010673;28;19926;-74
2024/01/24 07:00:43;;;;;;;;;;;8.60;99.90;;;;;;5011902;28;19965;-73
2024/01/24 07:03:08;;;;;;;;;;;8.60;99.90;;;;;;5019047;28;19925;-73
2024/01/24 07:05:34;;;;;;;;;;;8.70;99.90;;;;;;5031235;28;19932;-74
2024/01/24 07:07:59;;;;;;;;;;;8.80;99.90;;;;;;5031407;28;20385;-74
2024/01/24 07:10:25;;;;;;;;;;;8.70;99.90;;;;;;5031871;28;19979;-74
2024/01/24 07:12:51;;;;;;;;;;;8.60;99.90;;;;;;5031132;28;19926;-73
2024/01/24 07:15:17;;;;;;;;;;;8.60;99.90;;;;;;5031086;28;19936;-74
2024/01/24 07:17:42;;;;;;;;;;;8.90;99.90;;;;;;5028847;28;19925;-74
2024/01/24 07:20:08;;;;;;;;;;;8.40;99.90;;;;;;5031229;28;19963;-73
2024/01/24 07:22:33;;;;;;;;;;;8.50;99.90;;;;;;5024479;28;19964;-73
2024/01/24 07:24:59;;;;;;;;;;;9.00;99.90;;;;;;5025831;28;19932;-73
2024/01/24 07:27:24;;;;;;;;;;;9.10;99.90;;;;;;5028668;28;19937;-71
2024/01/24 07:29:50;;;;;;;;;;;9.20;99.90;;;;;;5024131;28;19932;-72
2024/01/24 07:32:15;;;;;;;;;;;8.60;99.90;;;;;;5009861;28;20384;-72
2024/01/24 07:34:41;;;;;;;;;;;8.60;99.90;;;;;;5018294;28;20471;-72
2024/01/24 07:37:07;;;;;;;;;;;9.20;99.90;;;;;;5010657;28;19929;-72
2024/01/24 07:39:33;;;;;;;;;;;8.50;99.90;;;;;;5009676;28;19973;-72
2024/01/24 07:41:59;;;;;;;;;;;8.70;99.90;;;;;;5015377;28;20011;-72
2024/01/24 07:44:24;;;;;;;;;;;8.50;99.90;;;;;;5010810;28;20001;-72
2024/01/24 07:46:50;;;;;;;;;;;8.40;99.90;;;;;;5009787;28;19929;-72
2024/01/24 07:49:15;;;;;;;;;;;8.50;99.90;;;;;;5010480;28;20363;-72
2024/01/24 07:51:41;;;;;;;;;;;8.90;99.90;;;;;;5010581;28;20012;-72
2024/01/24 07:54:07;;;;;;;;;;;8.70;99.90;;;;;;5009271;28;19935;-73
2024/01/24 07:56:33;;;;;;;;;;;8.40;99.90;;;;;;5010919;28;19925;-73
2024/01/24 07:58:58;;;;;;;;;;;8.50;99.90;;;;;;5010278;28;19926;-73
2024/01/24 08:01:26;;;;;;;;;;;8.60;99.90;;;;;;5009878;28;19964;-73
2024/01/24 08:03:52;;;;;;;;;;;8.60;99.90;;;;;;5010420;28;19983;-73
2024/01/24 08:06:17;;;;;;;;;;;8.60;99.90;;;;;;5010305;28;20353;-73
2024/01/24 08:08:43;;;;;;;;;;;8.60;99.90;;;;;;5009927;28;19932;-74
2024/01/24 08:11:08;;;;;;;;;;;8.70;99.90;;;;;;5011836;28;19926;-73
2024/01/24 08:13:34;;;;;;;;;;;8.90;99.90;;;;;;5014070;28;19930;-72
2024/01/24 08:15:59;;;;;;;;;;;8.70;99.90;;;;;;5012811;28;19932;-73
2024/01/24 08:18:25;;;;;;;;;;;8.80;99.90;;;;;;5021348;28;19926;-73
2024/01/24 08:20:52;;;;;;;;;;;8.70;99.90;;;;;;5014105;28;19926;-73
2024/01/24 08:23:18;;;;;;;;;;;8.80;99.90;;;;;;5013862;28;20436;-73
2024/01/24 08:25:44;;;;;;;;;;;9.80;99.90;;;;;;5015372;28;19968;-72
2024/01/24 08:28:09;;;;;;;;;;;9.30;99.90;;;;;;5013742;28;20266;-72
2024/01/24 08:30:38;;;;;;;;;;;8.90;99.90;;;;;;5014669;28;19930;-72
2024/01/24 08:33:04;;;;;;;;;;;9.30;99.90;;;;;;5015843;28;20365;-72
2024/01/24 08:35:29;;;;;;;;;;;9.00;99.90;;;;;;5015819;28;19926;-72
2024/01/24 08:37:55;;;;;;;;;;;9.10;99.90;;;;;;5014496;28;20013;-72
2024/01/24 08:40:21;;;;;;;;;;;10.10;99.90;;;;;;5013877;28;19981;-73
2024/01/24 08:42:46;;;;;;;;;;;9.40;99.90;;;;;;5014463;28;19933;-73
2024/01/24 08:45:12;;;;;;;;;;;9.90;99.90;;;;;;5031328;28;19950;-72
2024/01/24 08:47:38;;;;;;;;;;;9.60;99.90;;;;;;5053801;28;20281;-73
2024/01/24 08:50:04;;;;;;;;;;;9.90;99.90;;;;;;5032827;28;20336;-73
2024/01/24 08:52:31;;;;;;;;;;;10.10;99.90;;;;;;5020335;28;19926;-73
2024/01/24 08:54:57;;;;;;;;;;;10.40;99.90;;;;;;5016007;28;19936;-73
2024/01/24 08:57:24;;;;;;;;;;;10.50;99.90;;;;;;5017532;28;19926;-73
2024/01/24 08:59:49;;;;;;;;;;;10.70;99.90;;;;;;5016016;28;19925;-73
2024/01/24 09:02:15;;;;;;;;;;;11.00;99.90;;;;;;5019866;28;19959;-72
2024/01/24 09:04:41;;;;;;;;;;;11.10;99.90;;;;;;5022248;28;20008;-74
2024/01/24 09:07:06;;;;;;;;;;;11.00;99.90;;;;;;5018950;28;19980;-74
2024/01/24 09:09:33;;;;;;;;;;;11.30;99.90;;;;;;5019045;28;19929;-71
2024/01/24 09:11:59;;;;;;;;;;;11.40;99.90;;;;;;5019996;28;19932;-75
2024/01/24 09:14:25;;;;;;;;;;;11.70;99.90;;;;;;5013419;28;19926;-74
2024/01/24 09:16:50;;;;;;;;;;;11.90;99.90;;;;;;5015354;28;19975;-71
2024/01/24 09:19:16;;;;;;;;;;;12.10;99.90;;;;;;5024467;28;19933;-72
2024/01/24 09:21:41;;;;;;;;;;;12.10;99.90;;;;;;5019752;28;19952;-71
2024/01/24 09:24:07;;;;;;;;;;;12.20;99.90;;;;;;5022794;28;20323;-71
2024/01/24 09:26:32;;;;;;;;;;;12.60;99.90;;;;;;5024995;28;19972;-71
2024/01/24 09:29:01;;;;;;;;;;;12.60;99.90;;;;;;5020106;28;19926;-71
2024/01/24 09:31:26;;;;;;;;;;;12.70;99.90;;;;;;5018764;28;20029;-73
2024/01/24 09:33:52;;;;;;;;;;;12.70;99.90;;;;;;5022855;28;20032;-75
2024/01/24 09:36:18;;;;;;;;;;;13.00;99.90;;;;;;5027817;28;20370;-74
2024/01/24 09:38:46;;;;;;;;;;;13.10;99.90;;;;;;5024108;28;19936;-73
2024/01/24 09:41:16;;;;;;;;;;;13.20;99.90;;;;;;5024124;28;19933;-74
2024/01/24 09:43:42;;;;;;;;;;;13.00;99.90;;;;;;5021145;28;19926;-72
2024/01/24 09:46:09;;;;;;;;;;;13.10;99.90;;;;;;5023639;28;19975;-71
2024/01/24 09:48:35;;;;;;;;;;;13.10;99.90;;;;;;5020022;28;19925;-83
2024/01/24 09:51:03;;;;;;;;;;;13.30;99.90;;;;;;5022609;28;19925;-75
2024/01/24 09:53:30;;;;;;;;;;;13.10;99.90;;;;;;5025589;28;19932;-73
2024/01/24 09:55:56;;;;;;;;;;;13.40;99.90;;;;;;5026574;28;20016;-72
2024/01/24 09:58:21;;;;;;;;;;;13.40;99.90;;;;;;5022478;28;20479;-72
2024/01/24 10:00:47;;;;;;;;;;;13.50;99.90;;;;;;5025315;28;19925;-73
2024/01/24 10:03:13;;;;;;;;;;;13.60;99.90;;;;;;5021814;28;19974;-73
2024/01/24 10:05:40;;;;;;;;;;;13.80;99.90;;;;;;5039136;28;20471;-75
2024/01/24 10:08:06;;;;;;;;;;;14.20;99.90;;;;;;5021240;28;19940;-73
2024/01/24 10:10:31;;;;;;;;;;;13.90;99.90;;;;;;5023739;28;19925;-72
2024/01/24 10:12:57;;;;;;;;;;;13.90;99.90;;;;;;5020405;28;19925;-72
2024/01/24 10:15:23;;;;;;;;;;;14.00;99.90;;;;;;5016734;28;19925;-72
2024/01/24 10:17:49;;;;;;;;;;;14.20;99.90;;;;;;5022950;28;19956;-71
2024/01/24 10:20:14;;;;;;;;;;;14.30;99.90;;;;;;5023702;28;19925;-70
2024/01/24 10:22:42;;;;;;;;;;;14.40;99.90;;;;;;5020833;28;19925;-76
2024/01/24 10:25:09;;;;;;;;;;;14.30;99.90;;;;;;5038111;28;19929;-68
2024/01/24 10:27:37;;;;;;;;;;;14.40;99.90;;;;;;5017162;28;19925;-71
2024/01/24 10:30:07;;;;;;;;;;;14.40;99.90;;;;;;5026441;28;19926;-72
2024/01/24 10:32:34;;;;;;;;;;;14.30;99.90;;;;;;5022829;28;19925;-74
2024/01/24 10:35:03;;;;;;;;;;;14.20;99.90;;;;;;5017285;28;19929;-73
2024/01/24 10:37:29;;;;;;;;;;;14.40;99.90;;;;;;5027204;28;19931;-76
2024/01/24 10:39:55;;;;;;;;;;;14.60;99.90;;;;;;5022974;28;19933;-78
2024/01/24 10:42:22;;;;;;;;;;;14.70;99.90;;;;;;5017338;28;19964;-79
2024/01/24 10:44:49;;;;;;;;;;;14.90;99.90;;;;;;5022335;28;19925;-77
2024/01/24 10:47:15;;;;;;;;;;;14.90;99.90;;;;;;5022746;28;19983;-79
2024/01/24 10:49:41;;;;;;;;;;;14.80;99.90;;;;;;5021804;28;20393;-76
2024/01/24 10:52:09;;;;;;;;;;;14.60;99.90;;;;;;5011191;28;20328;-76
2024/01/24 10:54:37;;;;;;;;;;;14.70;99.90;;;;;;5022945;28;19925;-77
2024/01/24 10:57:04;;;;;;;;;;;15.40;99.90;;;;;;5017008;28;20016;-77
2024/01/24 10:59:31;;;;;;;;;;;15.30;99.90;;;;;;5019717;28;19936;-75
2024/01/24 11:01:57;;;;;;;;;;;15.60;99.90;;;;;;5019649;28;19971;-75
2024/01/24 11:04:23;;;;;;;;;;;15.80;99.90;;;;;;5017785;28;19965;-77
2024/01/24 11:06:54;;;;;;;;;;;15.30;99.90;;;;;;5021019;28;19938;-76
2024/01/24 11:09:23;;;;;;;;;;;14.50;99.90;;;;;;5020593;28;20384;-77
2024/01/24 11:11:57;;;;;;;;;;;14.00;99.90;;;;;;5014212;28;19979;-76
2024/01/24 11:14:30;;;;;;;;;;;13.30;99.90;;;;;;5021422;28;19925;-76
2024/01/24 11:16:57;;;;;;;;;;;13.30;99.90;;;;;;5019295;28;19925;-79
2024/01/24 11:19:28;;;;;;;;;;;13.10;99.90;;;;;;5023926;28;19925;-76
2024/01/24 11:21:54;;;;;;;;;;;12.80;99.90;;;;;;5022222;28;19921;-76
2024/01/24 11:24:38;;;;;;;;;;;13.00;99.90;;;;;;5022211;28;20308;-79
2024/01/24 11:27:04;;;;;;;;;;;13.40;99.90;;;;;;5016411;28;19929;-79
2024/01/24 11:29:33;;;;;;;;;;;13.80;99.90;;;;;;5015684;28;19925;-78
2024/01/24 11:31:58;;;;;;;;;;;13.80;99.90;;;;;;5016658;28;19925;-78
2024/01/24 11:34:26;;;;;;;;;;;14.40;99.90;;;;;;5019289;28;19971;-79
2024/01/24 11:36:52;;;;;;;;;;;14.80;99.90;;;;;;5012560;28;19929;-78
2024/01/24 11:39:38;;;;;;;;;;;14.80;99.90;;;;;;5012651;28;19945;-78
2024/01/24 11:42:22;;;;;;;;;;;14.80;99.90;;;;;;5022144;28;19926;-76
2024/01/24 11:44:47;;;;;;;;;;;15.30;99.90;;;;;;5021644;28;19933;-77
2024/01/24 11:47:13;;;;;;;;;;;15.20;99.90;;;;;;5026642;28;19933;-77
2024/01/24 11:49:38;;;;;;;;;;;15.30;99.90;;;;;;5019848;28;19925;-77
2024/01/24 11:52:07;;;;;;;;;;;15.60;99.90;;;;;;5018821;28;20289;-77
2024/01/24 11:54:33;;;;;;;;;;;15.50;99.90;;;;;;5020951;28;19992;-76
2024/01/24 11:56:59;;;;;;;;;;;15.00;99.90;;;;;;5022559;28;19929;-75
2024/01/24 11:59:25;;;;;;;;;;;14.70;99.90;;;;;;5021795;28;20305;-76
2024/01/24 12:01:50;;;;;;;;;;;14.80;99.90;;;;;;5026163;28;19932;-76
2024/01/24 12:04:16;;;;;;;;;;;15.00;99.90;;;;;;5026936;28;19925;-77
2024/01/24 12:06:48;;;;;;;;;;;14.60;99.90;;;;;;5024329;28;19957;-79
2024/01/24 12:09:14;;;;;;;;;;;14.90;99.90;;;;;;5024293;28;19936;-75
2024/01/24 12:11:42;;;;;;;;;;;15.10;99.90;;;;;;5021014;28;19964;-76
2024/01/24 12:14:11;;;;;;;;;;;14.90;99.90;;;;;;5022696;28;19925;-80
2024/01/24 12:16:36;;;;;;;;;;;14.80;99.90;;;;;;5021836;28;19953;-79
2024/01/24 12:19:02;;;;;;;;;;;14.40;99.90;;;;;;5023282;28;19933;-79
2024/01/24 12:21:28;;;;;;;;;;;15.10;99.90;;;;;;5022502;28;19932;-75
2024/01/24 12:23:54;;;;;;;;;;;15.20;99.90;;;;;;5026243;28;19925;-79
2024/01/24 12:26:19;;;;;;;;;;;15.10;99.90;;;;;;5024090;28;20380;-77
2024/01/24 12:28:45;;;;;;;;;;;14.70;99.90;;;;;;5021654;28;20399;-75
2024/01/24 12:31:11;;;;;;;;;;;14.50;99.90;;;;;;5023671;28;19929;-76
2024/01/24 12:33:36;;;;;;;;;;;14.80;99.90;;;;;;5026620;28;20303;-80
2024/01/24 12:36:02;;;;;;;;;;;14.90;99.90;;;;;;5021378;28;20369;-78
2024/01/24 12:38:35;;;;;;;;;;;14.30;99.90;;;;;;5023174;28;20437;-77
2024/01/24 12:41:01;;;;;;;;;;;14.00;99.90;;;;;;5021559;28;19929;-78
2024/01/24 12:43:26;;;;;;;;;;;14.10;99.90;;;;;;5025808;28;19934;-77
2024/01/24 12:45:52;;;;;;;;;;;13.20;99.90;;;;;;5025692;28;19925;-75
2024/01/24 12:48:18;;;;;;;;;;;12.70;99.90;;;;;;5025230;28;20678;-76
2024/01/24 12:50:43;;;;;;;;;;;12.70;99.90;;;;;;5025411;28;20312;-75
2024/01/24 12:53:09;;;;;;;;;;;12.70;99.90;;;;;;5020191;28;19925;-76
2024/01/24 12:55:34;;;;;;;;;;;12.40;99.90;;;;;;5021971;28;20718;-77
2024/01/24 12:58:00;;;;;;;;;;;12.40;99.90;;;;;;5017160;28;20483;-75
2024/01/24 13:00:25;;;;;;;;;;;12.60;99.90;;;;;;5020644;28;20429;-75
2024/01/24 13:02:52;;;;;;;;;;;12.60;99.90;;;;;;5022570;28;20016;-75
2024/01/24 13:05:22;;;;;;;;;;;12.60;99.90;;;;;;5023569;28;20015;-77
2024/01/24 13:07:47;;;;;;;;;;;12.20;99.90;;;;;;5021124;28;19963;-76
2024/01/24 13:10:13;;;;;;;;;;;12.20;99.90;;;;;;5023470;28;19964;-77
2024/01/24 13:12:39;;;;;;;;;;;12.00;99.90;;;;;;5022306;28;19925;-76
2024/01/24 13:15:06;;;;;;;;;;;11.70;99.90;;;;;;5024128;28;19928;-73
2024/01/24 13:17:31;;;;;;;;;;;11.50;99.90;;;;;;5019518;28;20328;-75
2024/01/24 13:19:57;;;;;;;;;;;11.30;99.90;;;;;;5023867;28;19929;-74
2024/01/24 13:22:23;;;;;;;;;;;11.20;99.90;;;;;;5021888;28;20365;-74
2024/01/24 13:24:48;;;;;;;;;;;11.00;99.90;;;;;;5021112;28;19971;-78
2024/01/24 13:27:14;;;;;;;;;;;11.20;99.90;;;;;;5030392;28;19925;-81
2024/01/24 13:29:40;;;;;;;;;;;10.60;99.90;;;;;;5019750;28;19929;-84
2024/01/24 13:32:06;;;;;;;;;;;10.60;99.90;;;;;;5024530;28;19925;-81
2024/01/24 13:34:34;;;;;;;;;;;10.30;99.90;;;;;;5015429;28;19925;-80
2024/01/24 13:37:03;;;;;;;;;;;10.50;99.90;;;;;;5026917;28;19926;-82
2024/01/24 13:39:28;;;;;;;;;;;10.20;99.90;;;;;;5021016;28;19932;-76
2024/01/24 13:41:54;;;;;;;;;;;10.80;99.90;;;;;;5020962;28;19945;-76
2024/01/24 13:44:19;;;;;;;;;;;10.10;99.90;;;;;;5014467;28;19952;-77
2024/01/24 13:46:46;;;;;;;;;;;9.80;99.90;;;;;;5031611;28;19933;-73
2024/01/24 13:49:12;;;;;;;;;;;9.80;99.90;;;;;;5025310;28;19937;-72
2024/01/24 13:51:38;;;;;;;;;;;10.50;99.90;;;;;;5016306;28;19948;-77
2024/01/24 13:54:06;;;;;;;;;;;9.80;99.90;;;;;;5024923;28;19964;-76
2024/01/24 13:56:32;;;;;;;;;;;9.70;99.90;;;;;;5022871;28;20357;-78
2024/01/24 13:59:00;;;;;;;;;;;9.70;99.90;;;;;;5024911;28;19932;-76
2024/01/24 14:01:26;;;;;;;;;;;10.30;99.90;;;;;;5029231;28;20384;-77
2024/01/24 14:03:51;;;;;;;;;;;10.10;99.90;;;;;;5024029;28;19930;-76
2024/01/24 14:06:19;;;;;;;;;;;9.60;99.90;;;;;;5019106;28;19936;-74
2024/01/24 14:08:45;;;;;;;;;;;9.80;99.90;;;;;;5023242;28;20411;-76
2024/01/24 14:11:10;;;;;;;;;;;9.50;99.90;;;;;;5022261;28;20006;-73
2024/01/24 14:13:37;;;;;;;;;;;9.40;99.90;;;;;;5014366;28;20365;-77
2024/01/24 14:16:02;;;;;;;;;;;9.40;99.90;;;;;;5016937;28;19921;-74